sensor_id;sensor_type;location;lat;lon;timestamp;P1;P2;P0
28647;PMS5003;17137;51.494;-0.262;2023-09-12T00:00:03;39;38;
28647;PMS5003;17137;51.494;-0.262;2023-09-12T00:00:34;38;37;
28647;PMS5003;17137;51.494;-0.262;2023-09-12T00:01:04;38;37;
28647;PMS5003;17137;51.494;-0.262;2023-09-12T00:01:40;38;37;
28647;PMS5003;17137;51.494;-0.262;2023-09-12T00:02:10;37;35;
28647;PMS5003;17137;51.494;-0.262;2023-09-12T00:02:41;37;35;
28647;PMS5003;17137;51.494;-0.262;2023-09-12T00:03:11;37;35;
28647;PMS5003;17137;51.494;-0.262;2023-09-12T00:03:41;36;34;
28647;PMS5003;17137;51.494;-0.262;2023-09-12T00:04:11;36;34;
28647;PMS5003;17137;51.494;-0.262;2023-09-12T00:04:42;32;31;
28647;PMS5003;17137;51.494;-0.262;2023-09-12T00:05:12;34;33;
28647;PMS5003;17137;51.494;-0.262;2023-09-12T00:05:50;35;34;
28647;PMS5003;17137;51.494;-0.262;2023-09-12T00:06:20;37;35;
28647;PMS5003;17137;51.494;-0.262;2023-09-12T00:06:51;37;36;
28647;PMS5003;17137;51.494;-0.262;2023-09-12T00:07:21;37;36;
28647;PMS5003;17137;51.494;-0.262;2023-09-12T00:07:51;36;36;
28647;PMS5003;17137;51.494;-0.262;2023-09-12T00:08:22;37;36;
28647;PMS5003;17137;51.494;-0.262;2023-09-12T00:08:53;36;35;
28647;PMS5003;17137;51.494;-0.262;2023-09-12T00:09:23;36;35;
28647;PMS5003;17137;51.494;-0.262;2023-09-12T00:09:54;36;35;
28647;PMS5003;17137;51.494;-0.262;2023-09-12T00:10:24;38;36;
28647;PMS5003;17137;51.494;-0.262;2023-09-12T00:10:59;38;36;
28647;PMS5003;17137;51.494;-0.262;2023-09-12T00:11:30;38;36;
28647;PMS5003;17137;51.494;-0.262;2023-09-12T00:12:01;37;35;
28647;PMS5003;17137;51.494;-0.262;2023-09-12T00:12:31;37;35;
28647;PMS5003;17137;51.494;-0.262;2023-09-12T00:13:02;30;28;
28647;PMS5003;17137;51.494;-0.262;2023-09-12T00:13:32;28;27;
28647;PMS5003;17137;51.494;-0.262;2023-09-12T00:14:03;28;27;
28647;PMS5003;17137;51.494;-0.262;2023-09-12T00:14:33;28;27;
28647;PMS5003;17137;51.494;-0.262;2023-09-12T00:15:04;28;27;
28647;PMS5003;17137;51.494;-0.262;2023-09-12T00:15:35;28;27;
28647;PMS5003;17137;51.494;-0.262;2023-09-12T00:16:05;28;27;
28647;PMS5003;17137;51.494;-0.262;2023-09-12T00:16:36;28;28;
28647;PMS5003;17137;51.494;-0.262;2023-09-12T00:17:06;28;28;
28647;PMS5003;17137;51.494;-0.262;2023-09-12T00:17:37;28;28;
28647;PMS5003;17137;51.494;-0.262;2023-09-12T00:18:07;28;28;
28647;PMS5003;17137;51.494;-0.262;2023-09-12T00:18:37;28;28;
28647;PMS5003;17137;51.494;-0.262;2023-09-12T00:19:08;28;28;
28647;PMS5003;17137;51.494;-0.262;2023-09-12T00:19:38;27;27;
28647;PMS5003;17137;51.494;-0.262;2023-09-12T00:20:09;27;27;
28647;PMS5003;17137;51.494;-0.262;2023-09-12T00:20:40;27;27;
28647;PMS5003;17137;51.494;-0.262;2023-09-12T00:21:10;29;28;
28647;PMS5003;17137;51.494;-0.262;2023-09-12T00:21:40;29;28;
28647;PMS5003;17137;51.494;-0.262;2023-09-12T00:22:11;29;28;
28647;PMS5003;17137;51.494;-0.262;2023-09-12T00:22:41;31;30;
28647;PMS5003;17137;51.494;-0.262;2023-09-12T00:23:11;31;30;
28647;PMS5003;17137;51.494;-0.262;2023-09-12T00:23:42;31;30;
28647;PMS5003;17137;51.494;-0.262;2023-09-12T00:24:17;31;30;
28647;PMS5003;17137;51.494;-0.262;2023-09-12T00:24:47;31;30;
28647;PMS5003;17137;51.494;-0.262;2023-09-12T00:25:18;31;30;
28647;PMS5003;17137;51.494;-0.262;2023-09-12T00:25:49;30;29;
28647;PMS5003;17137;51.494;-0.262;2023-09-12T00:26:19;30;29;
28647;PMS5003;17137;51.494;-0.262;2023-09-12T00:26:54;30;29;
28647;PMS5003;17137;51.494;-0.262;2023-09-12T00:27:24;30;29;
28647;PMS5003;17137;51.494;-0.262;2023-09-12T00:27:55;30;29;
28647;PMS5003;17137;51.494;-0.262;2023-09-12T00:28:25;30;29;
28647;PMS5003;17137;51.494;-0.262;2023-09-12T00:28:55;29;28;
28647;PMS5003;17137;51.494;-0.262;2023-09-12T00:29:26;26;24;
28647;PMS5003;17137;51.494;-0.262;2023-09-12T00:29:56;26;24;
28647;PMS5003;17137;51.494;-0.262;2023-09-12T00:30:26;24;23;
28647;PMS5003;17137;51.494;-0.262;2023-09-12T00:30:57;24;23;
28647;PMS5003;17137;51.494;-0.262;2023-09-12T00:31:27;24;23;
28647;PMS5003;17137;51.494;-0.262;2023-09-12T00:31:57;26;24;
28647;PMS5003;17137;51.494;-0.262;2023-09-12T00:32:28;26;24;
28647;PMS5003;17137;51.494;-0.262;2023-09-12T00:32:58;26;24;
28647;PMS5003;17137;51.494;-0.262;2023-09-12T00:33:28;26;24;
28647;PMS5003;17137;51.494;-0.262;2023-09-12T00:33:58;26;24;
28647;PMS5003;17137;51.494;-0.262;2023-09-12T00:34:29;26;24;
28647;PMS5003;17137;51.494;-0.262;2023-09-12T00:35:00;27;25;
28647;PMS5003;17137;51.494;-0.262;2023-09-12T00:35:30;27;25;
28647;PMS5003;17137;51.494;-0.262;2023-09-12T00:36:00;27;25;
28647;PMS5003;17137;51.494;-0.262;2023-09-12T00:36:31;28;26;
28647;PMS5003;17137;51.494;-0.262;2023-09-12T00:37:01;28;26;
28647;PMS5003;17137;51.494;-0.262;2023-09-12T00:37:31;31;28;
28647;PMS5003;17137;51.494;-0.262;2023-09-12T00:38:02;31;28;
28647;PMS5003;17137;51.494;-0.262;2023-09-12T00:38:33;31;28;
28647;PMS5003;17137;51.494;-0.262;2023-09-12T00:39:03;30;27;
28647;PMS5003;17137;51.494;-0.262;2023-09-12T00:39:33;30;27;
28647;PMS5003;17137;51.494;-0.262;2023-09-12T00:40:04;30;27;
28647;PMS5003;17137;51.494;-0.262;2023-09-12T00:40:35;30;27;
28647;PMS5003;17137;51.494;-0.262;2023-09-12T00:41:05;30;27;
28647;PMS5003;17137;51.494;-0.262;2023-09-12T00:41:36;30;27;
28647;PMS5003;17137;51.494;-0.262;2023-09-12T00:42:06;28;25;
28647;PMS5003;17137;51.494;-0.262;2023-09-12T00:42:36;28;25;
28647;PMS5003;17137;51.494;-0.262;2023-09-12T00:43:06;28;25;
28647;PMS5003;17137;51.494;-0.262;2023-09-12T00:43:37;28;25;
28647;PMS5003;17137;51.494;-0.262;2023-09-12T00:44:07;28;25;
28647;PMS5003;17137;51.494;-0.262;2023-09-12T00:44:39;28;25;
28647;PMS5003;17137;51.494;-0.262;2023-09-12T00:45:10;25;23;
28647;PMS5003;17137;51.494;-0.262;2023-09-12T00:45:40;29;26;
28647;PMS5003;17137;51.494;-0.262;2023-09-12T00:46:11;29;26;
28647;PMS5003;17137;51.494;-0.262;2023-09-12T00:46:46;29;27;
28647;PMS5003;17137;51.494;-0.262;2023-09-12T00:47:19;29;27;
28647;PMS5003;17137;51.494;-0.262;2023-09-12T00:47:50;29;27;
28647;PMS5003;17137;51.494;-0.262;2023-09-12T00:48:22;30;25;
28647;PMS5003;17137;51.494;-0.262;2023-09-12T00:48:53;30;25;
28647;PMS5003;17137;51.494;-0.262;2023-09-12T00:49:25;30;25;
28647;PMS5003;17137;51.494;-0.262;2023-09-12T00:49:56;30;26;
28647;PMS5003;17137;51.494;-0.262;2023-09-12T00:50:27;30;26;
28647;PMS5003;17137;51.494;-0.262;2023-09-12T00:51:00;30;26;
28647;PMS5003;17137;51.494;-0.262;2023-09-12T00:51:31;30;26;
28647;PMS5003;17137;51.494;-0.262;2023-09-12T00:52:03;30;26;
28647;PMS5003;17137;51.494;-0.262;2023-09-12T00:52:34;30;26;
28647;PMS5003;17137;51.494;-0.262;2023-09-12T00:53:06;29;25;
28647;PMS5003;17137;51.494;-0.262;2023-09-12T00:53:37;29;25;
28647;PMS5003;17137;51.494;-0.262;2023-09-12T00:54:07;25;24;
28647;PMS5003;17137;51.494;-0.262;2023-09-12T00:54:38;25;24;
28647;PMS5003;17137;51.494;-0.262;2023-09-12T00:55:10;25;24;
28647;PMS5003;17137;51.494;-0.262;2023-09-12T00:55:42;25;24;
28647;PMS5003;17137;51.494;-0.262;2023-09-12T00:56:18;25;24;
28647;PMS5003;17137;51.494;-0.262;2023-09-12T00:56:48;25;24;
28647;PMS5003;17137;51.494;-0.262;2023-09-12T00:57:19;23;23;
28647;PMS5003;17137;51.494;-0.262;2023-09-12T00:57:50;23;23;
28647;PMS5003;17137;51.494;-0.262;2023-09-12T00:58:22;23;23;
28647;PMS5003;17137;51.494;-0.262;2023-09-12T00:58:53;25;23;
28647;PMS5003;17137;51.494;-0.262;2023-09-12T00:59:24;25;23;
28647;PMS5003;17137;51.494;-0.262;2023-09-12T00:59:54;25;23;
28647;PMS5003;17137;51.494;-0.262;2023-09-12T01:00:25;28;24;
28647;PMS5003;17137;51.494;-0.262;2023-09-12T01:00:56;28;24;
28647;PMS5003;17137;51.494;-0.262;2023-09-12T01:01:26;28;24;
28647;PMS5003;17137;51.494;-0.262;2023-09-12T01:01:57;27;23;
28647;PMS5003;17137;51.494;-0.262;2023-09-12T01:02:28;25;25;
28647;PMS5003;17137;51.494;-0.262;2023-09-12T01:03:00;24;24;
28647;PMS5003;17137;51.494;-0.262;2023-09-12T01:03:30;23;23;
28647;PMS5003;17137;51.494;-0.262;2023-09-12T01:04:01;23;23;
28647;PMS5003;17137;51.494;-0.262;2023-09-12T01:04:32;23;23;
28647;PMS5003;17137;51.494;-0.262;2023-09-12T01:05:05;23;23;
28647;PMS5003;17137;51.494;-0.262;2023-09-12T01:05:36;23;23;
28647;PMS5003;17137;51.494;-0.262;2023-09-12T01:06:06;23;23;
28647;PMS5003;17137;51.494;-0.262;2023-09-12T01:06:37;25;23;
28647;PMS5003;17137;51.494;-0.262;2023-09-12T01:07:08;25;23;
28647;PMS5003;17137;51.494;-0.262;2023-09-12T01:07:38;25;23;
28647;PMS5003;17137;51.494;-0.262;2023-09-12T01:08:09;26;23;
28647;PMS5003;17137;51.494;-0.262;2023-09-12T01:08:40;26;23;
28647;PMS5003;17137;51.494;-0.262;2023-09-12T01:09:10;26;23;
28647;PMS5003;17137;51.494;-0.262;2023-09-12T01:09:42;26;23;
28647;PMS5003;17137;51.494;-0.262;2023-09-12T01:10:41;31;25;
28647;PMS5003;17137;51.494;-0.262;2023-09-12T01:11:13;31;25;
28647;PMS5003;17137;51.494;-0.262;2023-09-12T01:11:44;31;25;
28647;PMS5003;17137;51.494;-0.262;2023-09-12T01:12:14;30;24;
28647;PMS5003;17137;51.494;-0.262;2023-09-12T01:12:44;30;24;
28647;PMS5003;17137;51.494;-0.262;2023-09-12T01:13:15;30;24;
28647;PMS5003;17137;51.494;-0.262;2023-09-12T01:13:46;29;24;
28647;PMS5003;17137;51.494;-0.262;2023-09-12T01:14:16;29;24;
28647;PMS5003;17137;51.494;-0.262;2023-09-12T01:14:47;29;24;
28647;PMS5003;17137;51.494;-0.262;2023-09-12T01:15:17;30;24;
28647;PMS5003;17137;51.494;-0.262;2023-09-12T01:15:47;30;24;
28647;PMS5003;17137;51.494;-0.262;2023-09-12T01:16:17;30;24;
28647;PMS5003;17137;51.494;-0.262;2023-09-12T01:16:48;28;24;
28647;PMS5003;17137;51.494;-0.262;2023-09-12T01:17:18;28;24;
28647;PMS5003;17137;51.494;-0.262;2023-09-12T01:17:49;28;24;
28647;PMS5003;17137;51.494;-0.262;2023-09-12T01:18:19;32;29;
28647;PMS5003;17137;51.494;-0.262;2023-09-12T01:18:50;32;29;
28647;PMS5003;17137;51.494;-0.262;2023-09-12T01:19:20;32;29;
28647;PMS5003;17137;51.494;-0.262;2023-09-12T01:19:50;32;29;
28647;PMS5003;17137;51.494;-0.262;2023-09-12T01:20:22;32;29;
28647;PMS5003;17137;51.494;-0.262;2023-09-12T01:21:03;32;29;
28647;PMS5003;17137;51.494;-0.262;2023-09-12T01:21:57;32;29;
28647;PMS5003;17137;51.494;-0.262;2023-09-12T01:23:18;33;30;
28647;PMS5003;17137;51.494;-0.262;2023-09-12T01:24:04;33;30;
28647;PMS5003;17137;51.494;-0.262;2023-09-12T01:25:00;33;30;
28647;PMS5003;17137;51.494;-0.262;2023-09-12T01:25:43;30;28;
28647;PMS5003;17137;51.494;-0.262;2023-09-12T01:26:48;29;27;
28647;PMS5003;17137;51.494;-0.262;2023-09-12T01:27:25;29;27;
28647;PMS5003;17137;51.494;-0.262;2023-09-12T01:27:58;28;27;
28647;PMS5003;17137;51.494;-0.262;2023-09-12T01:28:31;28;27;
28647;PMS5003;17137;51.494;-0.262;2023-09-12T01:29:04;29;28;
28647;PMS5003;17137;51.494;-0.262;2023-09-12T01:29:36;36;34;
28647;PMS5003;17137;51.494;-0.262;2023-09-12T01:30:08;36;34;
28647;PMS5003;17137;51.494;-0.262;2023-09-12T01:30:40;35;33;
28647;PMS5003;17137;51.494;-0.262;2023-09-12T01:31:12;35;33;
28647;PMS5003;17137;51.494;-0.262;2023-09-12T01:31:43;35;33;
28647;PMS5003;17137;51.494;-0.262;2023-09-12T01:32:15;34;32;
28647;PMS5003;17137;51.494;-0.262;2023-09-12T01:32:49;34;32;
28647;PMS5003;17137;51.494;-0.262;2023-09-12T01:33:20;34;32;
28647;PMS5003;17137;51.494;-0.262;2023-09-12T01:33:54;33;30;
28647;PMS5003;17137;51.494;-0.262;2023-09-12T01:34:26;33;30;
28647;PMS5003;17137;51.494;-0.262;2023-09-12T01:34:56;33;30;
28647;PMS5003;17137;51.494;-0.262;2023-09-12T01:35:26;31;30;
28647;PMS5003;17137;51.494;-0.262;2023-09-12T01:35:57;32;31;
28647;PMS5003;17137;51.494;-0.262;2023-09-12T01:36:28;32;31;
28647;PMS5003;17137;51.494;-0.262;2023-09-12T01:36:58;33;31;
28647;PMS5003;17137;51.494;-0.262;2023-09-12T01:37:58;31;27;
28647;PMS5003;17137;51.494;-0.262;2023-09-12T01:38:28;31;27;
28647;PMS5003;17137;51.494;-0.262;2023-09-12T01:39:04;31;27;
28647;PMS5003;17137;51.494;-0.262;2023-09-12T01:39:34;31;27;
28647;PMS5003;17137;51.494;-0.262;2023-09-12T01:40:05;32;29;
28647;PMS5003;17137;51.494;-0.262;2023-09-12T01:40:38;32;29;
28647;PMS5003;17137;51.494;-0.262;2023-09-12T01:41:13;32;29;
28647;PMS5003;17137;51.494;-0.262;2023-09-12T01:41:44;30;28;
28647;PMS5003;17137;51.494;-0.262;2023-09-12T01:42:17;30;28;
28647;PMS5003;17137;51.494;-0.262;2023-09-12T01:42:50;30;28;
28647;PMS5003;17137;51.494;-0.262;2023-09-12T01:43:23;30;28;
28647;PMS5003;17137;51.494;-0.262;2023-09-12T01:44:01;30;28;
28647;PMS5003;17137;51.494;-0.262;2023-09-12T01:44:33;30;28;
28647;PMS5003;17137;51.494;-0.262;2023-09-12T01:45:08;30;28;
28647;PMS5003;17137;51.494;-0.262;2023-09-12T01:45:41;30;28;
28647;PMS5003;17137;51.494;-0.262;2023-09-12T01:46:13;31;31;
28647;PMS5003;17137;51.494;-0.262;2023-09-12T01:46:46;30;30;
28647;PMS5003;17137;51.494;-0.262;2023-09-12T01:47:19;30;30;
28647;PMS5003;17137;51.494;-0.262;2023-09-12T01:47:51;30;30;
28647;PMS5003;17137;51.494;-0.262;2023-09-12T01:48:22;29;29;
28647;PMS5003;17137;51.494;-0.262;2023-09-12T01:48:55;29;29;
28647;PMS5003;17137;51.494;-0.262;2023-09-12T01:49:27;29;29;
28647;PMS5003;17137;51.494;-0.262;2023-09-12T01:49:59;32;30;
28647;PMS5003;17137;51.494;-0.262;2023-09-12T01:50:31;32;30;
28647;PMS5003;17137;51.494;-0.262;2023-09-12T01:51:03;32;30;
28647;PMS5003;17137;51.494;-0.262;2023-09-12T01:51:34;32;31;
28647;PMS5003;17137;51.494;-0.262;2023-09-12T01:52:05;32;31;
28647;PMS5003;17137;51.494;-0.262;2023-09-12T01:52:36;32;31;
28647;PMS5003;17137;51.494;-0.262;2023-09-12T01:53:07;31;30;
28647;PMS5003;17137;51.494;-0.262;2023-09-12T01:53:37;31;30;
28647;PMS5003;17137;51.494;-0.262;2023-09-12T01:54:08;31;30;
28647;PMS5003;17137;51.494;-0.262;2023-09-12T01:54:39;29;26;
28647;PMS5003;17137;51.494;-0.262;2023-09-12T01:55:10;27;25;
28647;PMS5003;17137;51.494;-0.262;2023-09-12T01:55:42;28;26;
28647;PMS5003;17137;51.494;-0.262;2023-09-12T01:56:12;28;26;
28647;PMS5003;17137;51.494;-0.262;2023-09-12T01:56:43;28;26;
28647;PMS5003;17137;51.494;-0.262;2023-09-12T01:57:14;28;26;
28647;PMS5003;17137;51.494;-0.262;2023-09-12T01:57:44;28;26;
28647;PMS5003;17137;51.494;-0.262;2023-09-12T01:58:14;29;26;
28647;PMS5003;17137;51.494;-0.262;2023-09-12T01:58:45;29;26;
28647;PMS5003;17137;51.494;-0.262;2023-09-12T01:59:15;29;26;
28647;PMS5003;17137;51.494;-0.262;2023-09-12T01:59:46;28;26;
28647;PMS5003;17137;51.494;-0.262;2023-09-12T02:00:17;28;26;
28647;PMS5003;17137;51.494;-0.262;2023-09-12T02:00:48;27;25;
28647;PMS5003;17137;51.494;-0.262;2023-09-12T02:01:18;27;25;
28647;PMS5003;17137;51.494;-0.262;2023-09-12T02:01:49;27;25;
28647;PMS5003;17137;51.494;-0.262;2023-09-12T02:02:19;27;25;
28647;PMS5003;17137;51.494;-0.262;2023-09-12T02:02:50;27;24;
28647;PMS5003;17137;51.494;-0.262;2023-09-12T02:03:20;27;24;
28647;PMS5003;17137;51.494;-0.262;2023-09-12T02:03:50;27;24;
28647;PMS5003;17137;51.494;-0.262;2023-09-12T02:04:20;26;23;
28647;PMS5003;17137;51.494;-0.262;2023-09-12T02:04:51;26;23;
28647;PMS5003;17137;51.494;-0.262;2023-09-12T02:05:33;26;23;
28647;PMS5003;17137;51.494;-0.262;2023-09-12T02:06:04;28;25;
28647;PMS5003;17137;51.494;-0.262;2023-09-12T02:06:34;28;25;
28647;PMS5003;17137;51.494;-0.262;2023-09-12T02:07:04;28;25;
28647;PMS5003;17137;51.494;-0.262;2023-09-12T02:07:35;28;26;
28647;PMS5003;17137;51.494;-0.262;2023-09-12T02:08:07;28;26;
28647;PMS5003;17137;51.494;-0.262;2023-09-12T02:08:37;28;26;
28647;PMS5003;17137;51.494;-0.262;2023-09-12T02:09:07;28;25;
28647;PMS5003;17137;51.494;-0.262;2023-09-12T02:09:37;28;25;
28647;PMS5003;17137;51.494;-0.262;2023-09-12T02:10:08;28;25;
28647;PMS5003;17137;51.494;-0.262;2023-09-12T02:10:39;26;25;
28647;PMS5003;17137;51.494;-0.262;2023-09-12T02:11:09;28;26;
28647;PMS5003;17137;51.494;-0.262;2023-09-12T02:11:39;28;26;
28647;PMS5003;17137;51.494;-0.262;2023-09-12T02:12:09;28;26;
28647;PMS5003;17137;51.494;-0.262;2023-09-12T02:12:39;28;27;
28647;PMS5003;17137;51.494;-0.262;2023-09-12T02:13:10;28;27;
28647;PMS5003;17137;51.494;-0.262;2023-09-12T02:13:40;28;27;
28647;PMS5003;17137;51.494;-0.262;2023-09-12T02:14:10;27;26;
28647;PMS5003;17137;51.494;-0.262;2023-09-12T02:14:41;27;26;
28647;PMS5003;17137;51.494;-0.262;2023-09-12T02:15:11;27;26;
28647;PMS5003;17137;51.494;-0.262;2023-09-12T02:15:41;26;25;
28647;PMS5003;17137;51.494;-0.262;2023-09-12T02:16:12;26;25;
28647;PMS5003;17137;51.494;-0.262;2023-09-12T02:16:42;26;25;
28647;PMS5003;17137;51.494;-0.262;2023-09-12T02:17:12;28;25;
28647;PMS5003;17137;51.494;-0.262;2023-09-12T02:17:43;28;25;
28647;PMS5003;17137;51.494;-0.262;2023-09-12T02:18:13;28;25;
28647;PMS5003;17137;51.494;-0.262;2023-09-12T02:18:43;29;27;
28647;PMS5003;17137;51.494;-0.262;2023-09-12T02:19:14;25;24;
28647;PMS5003;17137;51.494;-0.262;2023-09-12T02:19:46;25;24;
28647;PMS5003;17137;51.494;-0.262;2023-09-12T02:20:17;24;23;
28647;PMS5003;17137;51.494;-0.262;2023-09-12T02:20:47;24;23;
28647;PMS5003;17137;51.494;-0.262;2023-09-12T02:21:18;24;23;
28647;PMS5003;17137;51.494;-0.262;2023-09-12T02:21:48;23;22;
28647;PMS5003;17137;51.494;-0.262;2023-09-12T02:22:18;23;22;
28647;PMS5003;17137;51.494;-0.262;2023-09-12T02:22:49;22;21;
28647;PMS5003;17137;51.494;-0.262;2023-09-12T02:23:19;25;22;
28647;PMS5003;17137;51.494;-0.262;2023-09-12T02:23:49;25;22;
28647;PMS5003;17137;51.494;-0.262;2023-09-12T02:24:19;26;23;
28647;PMS5003;17137;51.494;-0.262;2023-09-12T02:24:50;26;23;
28647;PMS5003;17137;51.494;-0.262;2023-09-12T02:25:20;26;23;
28647;PMS5003;17137;51.494;-0.262;2023-09-12T02:25:50;26;23;
28647;PMS5003;17137;51.494;-0.262;2023-09-12T02:26:21;25;22;
28647;PMS5003;17137;51.494;-0.262;2023-09-12T02:26:51;25;22;
28647;PMS5003;17137;51.494;-0.262;2023-09-12T02:27:21;24;22;
28647;PMS5003;17137;51.494;-0.262;2023-09-12T02:27:52;23;21;
28647;PMS5003;17137;51.494;-0.262;2023-09-12T02:28:22;23;21;
28647;PMS5003;17137;51.494;-0.262;2023-09-12T02:28:52;23;21;
28647;PMS5003;17137;51.494;-0.262;2023-09-12T02:29:22;22;21;
28647;PMS5003;17137;51.494;-0.262;2023-09-12T02:29:53;22;21;
28647;PMS5003;17137;51.494;-0.262;2023-09-12T02:30:23;22;21;
28647;PMS5003;17137;51.494;-0.262;2023-09-12T02:30:53;22;20;
28647;PMS5003;17137;51.494;-0.262;2023-09-12T02:31:24;22;20;
28647;PMS5003;17137;51.494;-0.262;2023-09-12T02:31:55;22;20;
28647;PMS5003;17137;51.494;-0.262;2023-09-12T02:32:25;23;21;
28647;PMS5003;17137;51.494;-0.262;2023-09-12T02:32:56;23;21;
28647;PMS5003;17137;51.494;-0.262;2023-09-12T02:33:26;23;21;
28647;PMS5003;17137;51.494;-0.262;2023-09-12T02:33:56;23;21;
28647;PMS5003;17137;51.494;-0.262;2023-09-12T02:34:26;23;21;
28647;PMS5003;17137;51.494;-0.262;2023-09-12T02:34:57;23;21;
28647;PMS5003;17137;51.494;-0.262;2023-09-12T02:35:27;18;17;
28647;PMS5003;17137;51.494;-0.262;2023-09-12T02:35:57;19;19;
28647;PMS5003;17137;51.494;-0.262;2023-09-12T02:36:28;18;18;
28647;PMS5003;17137;51.494;-0.262;2023-09-12T02:36:58;19;19;
28647;PMS5003;17137;51.494;-0.262;2023-09-12T02:37:29;19;19;
28647;PMS5003;17137;51.494;-0.262;2023-09-12T02:38:00;19;19;
28647;PMS5003;17137;51.494;-0.262;2023-09-12T02:38:30;19;19;
28647;PMS5003;17137;51.494;-0.262;2023-09-12T02:39:00;20;20;
28647;PMS5003;17137;51.494;-0.262;2023-09-12T02:39:31;21;21;
28647;PMS5003;17137;51.494;-0.262;2023-09-12T02:40:01;20;20;
28647;PMS5003;17137;51.494;-0.262;2023-09-12T02:40:31;20;20;
28647;PMS5003;17137;51.494;-0.262;2023-09-12T02:41:02;20;20;
28647;PMS5003;17137;51.494;-0.262;2023-09-12T02:41:32;21;21;
28647;PMS5003;17137;51.494;-0.262;2023-09-12T02:42:02;21;21;
28647;PMS5003;17137;51.494;-0.262;2023-09-12T02:42:33;21;21;
28647;PMS5003;17137;51.494;-0.262;2023-09-12T02:43:03;21;21;
28647;PMS5003;17137;51.494;-0.262;2023-09-12T02:43:38;18;16;
28647;PMS5003;17137;51.494;-0.262;2023-09-12T02:44:09;18;16;
28647;PMS5003;17137;51.494;-0.262;2023-09-12T02:44:39;18;16;
28647;PMS5003;17137;51.494;-0.262;2023-09-12T02:45:09;18;15;
28647;PMS5003;17137;51.494;-0.262;2023-09-12T02:45:40;18;15;
28647;PMS5003;17137;51.494;-0.262;2023-09-12T02:46:10;18;15;
28647;PMS5003;17137;51.494;-0.262;2023-09-12T02:46:40;18;16;
28647;PMS5003;17137;51.494;-0.262;2023-09-12T02:47:11;18;16;
28647;PMS5003;17137;51.494;-0.262;2023-09-12T02:47:41;18;16;
28647;PMS5003;17137;51.494;-0.262;2023-09-12T02:48:11;18;16;
28647;PMS5003;17137;51.494;-0.262;2023-09-12T02:48:41;17;15;
28647;PMS5003;17137;51.494;-0.262;2023-09-12T02:49:17;17;15;
28647;PMS5003;17137;51.494;-0.262;2023-09-12T02:49:47;17;15;
28647;PMS5003;17137;51.494;-0.262;2023-09-12T02:50:17;18;16;
28647;PMS5003;17137;51.494;-0.262;2023-09-12T02:50:48;18;16;
28647;PMS5003;17137;51.494;-0.262;2023-09-12T02:51:18;18;16;
28647;PMS5003;17137;51.494;-0.262;2023-09-12T02:51:48;13;13;
28647;PMS5003;17137;51.494;-0.262;2023-09-12T02:52:18;13;13;
28647;PMS5003;17137;51.494;-0.262;2023-09-12T02:52:49;13;13;
28647;PMS5003;17137;51.494;-0.262;2023-09-12T02:53:19;14;14;
28647;PMS5003;17137;51.494;-0.262;2023-09-12T02:53:49;14;14;
28647;PMS5003;17137;51.494;-0.262;2023-09-12T02:54:19;14;14;
28647;PMS5003;17137;51.494;-0.262;2023-09-12T02:54:50;15;15;
28647;PMS5003;17137;51.494;-0.262;2023-09-12T02:55:20;15;15;
28647;PMS5003;17137;51.494;-0.262;2023-09-12T02:55:51;15;15;
28647;PMS5003;17137;51.494;-0.262;2023-09-12T02:56:21;16;16;
28647;PMS5003;17137;51.494;-0.262;2023-09-12T02:56:51;16;16;
28647;PMS5003;17137;51.494;-0.262;2023-09-12T02:57:22;16;16;
28647;PMS5003;17137;51.494;-0.262;2023-09-12T02:57:52;17;17;
28647;PMS5003;17137;51.494;-0.262;2023-09-12T02:58:22;17;17;
28647;PMS5003;17137;51.494;-0.262;2023-09-12T02:58:53;17;17;
28647;PMS5003;17137;51.494;-0.262;2023-09-12T02:59:23;17;17;
28647;PMS5003;17137;51.494;-0.262;2023-09-12T02:59:53;15;15;
28647;PMS5003;17137;51.494;-0.262;2023-09-12T03:00:23;15;15;
28647;PMS5003;17137;51.494;-0.262;2023-09-12T03:00:54;15;15;
28647;PMS5003;17137;51.494;-0.262;2023-09-12T03:01:24;15;15;
28647;PMS5003;17137;51.494;-0.262;2023-09-12T03:01:55;15;15;
28647;PMS5003;17137;51.494;-0.262;2023-09-12T03:02:25;15;15;
28647;PMS5003;17137;51.494;-0.262;2023-09-12T03:02:55;14;14;
28647;PMS5003;17137;51.494;-0.262;2023-09-12T03:03:25;14;14;
28647;PMS5003;17137;51.494;-0.262;2023-09-12T03:03:56;14;14;
28647;PMS5003;17137;51.494;-0.262;2023-09-12T03:04:27;16;16;
28647;PMS5003;17137;51.494;-0.262;2023-09-12T03:04:59;16;16;
28647;PMS5003;17137;51.494;-0.262;2023-09-12T03:05:30;16;16;
28647;PMS5003;17137;51.494;-0.262;2023-09-12T03:06:01;16;16;
28647;PMS5003;17137;51.494;-0.262;2023-09-12T03:06:31;16;16;
28647;PMS5003;17137;51.494;-0.262;2023-09-12T03:07:02;16;16;
28647;PMS5003;17137;51.494;-0.262;2023-09-12T03:07:32;16;16;
28647;PMS5003;17137;51.494;-0.262;2023-09-12T03:08:03;16;16;
28647;PMS5003;17137;51.494;-0.262;2023-09-12T03:08:33;16;16;
28647;PMS5003;17137;51.494;-0.262;2023-09-12T03:09:04;15;15;
28647;PMS5003;17137;51.494;-0.262;2023-09-12T03:09:34;14;14;
28647;PMS5003;17137;51.494;-0.262;2023-09-12T03:10:04;14;14;
28647;PMS5003;17137;51.494;-0.262;2023-09-12T03:10:35;14;14;
28647;PMS5003;17137;51.494;-0.262;2023-09-12T03:11:11;16;15;
28647;PMS5003;17137;51.494;-0.262;2023-09-12T03:11:41;16;15;
28647;PMS5003;17137;51.494;-0.262;2023-09-12T03:12:11;16;15;
28647;PMS5003;17137;51.494;-0.262;2023-09-12T03:12:41;17;15;
28647;PMS5003;17137;51.494;-0.262;2023-09-12T03:13:12;17;15;
28647;PMS5003;17137;51.494;-0.262;2023-09-12T03:13:42;17;15;
28647;PMS5003;17137;51.494;-0.262;2023-09-12T03:14:12;17;15;
28647;PMS5003;17137;51.494;-0.262;2023-09-12T03:14:42;17;15;
28647;PMS5003;17137;51.494;-0.262;2023-09-12T03:15:13;17;15;
28647;PMS5003;17137;51.494;-0.262;2023-09-12T03:15:43;18;17;
28647;PMS5003;17137;51.494;-0.262;2023-09-12T03:16:14;17;15;
28647;PMS5003;17137;51.494;-0.262;2023-09-12T03:16:44;17;15;
28647;PMS5003;17137;51.494;-0.262;2023-09-12T03:17:15;17;15;
28647;PMS5003;17137;51.494;-0.262;2023-09-12T03:17:45;17;15;
28647;PMS5003;17137;51.494;-0.262;2023-09-12T03:18:15;17;15;
28647;PMS5003;17137;51.494;-0.262;2023-09-12T03:18:45;17;15;
28647;PMS5003;17137;51.494;-0.262;2023-09-12T03:19:16;15;15;
28647;PMS5003;17137;51.494;-0.262;2023-09-12T03:19:46;15;15;
28647;PMS5003;17137;51.494;-0.262;2023-09-12T03:20:16;15;15;
28647;PMS5003;17137;51.494;-0.262;2023-09-12T03:20:46;14;14;
28647;PMS5003;17137;51.494;-0.262;2023-09-12T03:21:17;14;14;
28647;PMS5003;17137;51.494;-0.262;2023-09-12T03:21:47;14;14;
28647;PMS5003;17137;51.494;-0.262;2023-09-12T03:22:17;14;14;
28647;PMS5003;17137;51.494;-0.262;2023-09-12T03:22:47;14;14;
28647;PMS5003;17137;51.494;-0.262;2023-09-12T03:23:18;14;14;
28647;PMS5003;17137;51.494;-0.262;2023-09-12T03:23:49;13;13;
28647;PMS5003;17137;51.494;-0.262;2023-09-12T03:24:19;17;17;
28647;PMS5003;17137;51.494;-0.262;2023-09-12T03:24:49;16;16;
28647;PMS5003;17137;51.494;-0.262;2023-09-12T03:25:20;16;16;